createdAt,value
2018-10-09T00:01:51.438Z,21.68
2018-10-09T00:04:19.739Z,21.66
2018-10-09T00:06:48.102Z,21.63
2018-10-09T00:09:16.444Z,21.62
2018-10-09T00:11:45.274Z,21.63
2018-10-09T00:14:13.593Z,21.60
2018-10-09T00:16:41.893Z,21.59
2018-10-09T00:19:10.258Z,21.57
2018-10-09T00:21:38.864Z,21.58
2018-10-09T00:24:07.800Z,21.56
2018-10-09T00:26:36.294Z,21.55
2018-10-09T00:29:04.925Z,21.55
2018-10-09T00:31:33.224Z,21.53
2018-10-09T00:34:02.582Z,21.54
2018-10-09T00:36:31.000Z,21.51
2018-10-09T00:38:59.334Z,21.51
2018-10-09T00:41:27.687Z,21.49
2018-10-09T00:43:56.010Z,21.48
2018-10-09T00:46:24.309Z,21.48
2018-10-09T00:48:53.746Z,21.48
2018-10-09T00:51:22.065Z,21.47
2018-10-09T00:53:50.386Z,21.46
2018-10-09T00:56:18.805Z,21.46
2018-10-09T00:58:47.503Z,21.44
2018-10-09T01:01:15.827Z,21.42
2018-10-09T01:03:44.250Z,21.42
2018-10-09T01:06:12.576Z,21.41
2018-10-09T01:08:40.954Z,21.41
2018-10-09T01:11:09.275Z,21.40
2018-10-09T01:13:37.625Z,21.38
2018-10-09T01:16:06.056Z,21.37
2018-10-09T01:18:34.477Z,21.34
2018-10-09T01:21:02.886Z,21.31
2018-10-09T01:23:31.254Z,21.34
2018-10-09T01:25:59.618Z,21.33
2018-10-09T01:28:28.010Z,21.35
2018-10-09T01:30:56.354Z,21.33
2018-10-09T01:33:24.634Z,21.32
2018-10-09T01:35:52.924Z,21.32
2018-10-09T01:38:21.211Z,21.31
2018-10-09T01:40:50.079Z,21.32
2018-10-09T01:43:18.366Z,21.30
2018-10-09T01:45:46.659Z,21.29
2018-10-09T01:48:14.950Z,21.29
2018-10-09T01:50:43.253Z,21.28
2018-10-09T01:53:11.570Z,21.26
2018-10-09T01:55:39.858Z,21.25
2018-10-09T01:58:08.154Z,21.23
2018-10-09T02:00:36.562Z,21.23
2018-10-09T02:03:04.883Z,21.21
2018-10-09T02:05:34.260Z,21.22
2018-10-09T02:08:02.542Z,21.19
2018-10-09T02:10:30.943Z,21.19
2018-10-09T02:12:59.246Z,21.17
2018-10-09T02:15:27.570Z,21.16
2018-10-09T02:17:55.925Z,21.17
2018-10-09T02:20:24.243Z,21.18
2018-10-09T02:22:52.534Z,21.17
2018-10-09T02:25:21.613Z,21.17
2018-10-09T02:27:50.000Z,21.14
2018-10-09T02:30:18.298Z,21.14
2018-10-09T02:32:46.602Z,21.15
2018-10-09T02:35:16.071Z,21.12
2018-10-09T02:37:44.387Z,21.12
2018-10-09T02:40:12.689Z,21.11
2018-10-09T02:42:40.990Z,21.10
2018-10-09T02:45:09.373Z,21.07
2018-10-09T02:47:37.907Z,21.10
2018-10-09T02:50:06.786Z,21.12
2018-10-09T02:52:35.122Z,21.10
2018-10-09T02:55:03.441Z,21.09
2018-10-09T02:57:31.719Z,21.08
2018-10-09T03:00:00.067Z,21.07
2018-10-09T03:02:28.365Z,21.06
2018-10-09T03:04:56.675Z,21.03
2018-10-09T03:07:25.090Z,21.04
2018-10-09T03:09:53.786Z,21.02
2018-10-09T03:12:23.133Z,21.03
2018-10-09T03:14:51.441Z,20.99
2018-10-09T03:17:19.849Z,21.01
2018-10-09T03:19:48.175Z,21.01
2018-10-09T03:22:16.703Z,21.01
2018-10-09T03:24:45.303Z,21.04
2018-10-09T03:27:13.896Z,21.00
2018-10-09T03:29:42.414Z,21.02
2018-10-09T03:32:10.740Z,20.99
2018-10-09T03:34:39.030Z,20.99
2018-10-09T03:37:07.446Z,20.97
2018-10-09T03:39:35.745Z,20.97
2018-10-09T03:42:04.078Z,20.95
2018-10-09T03:44:32.386Z,20.95
2018-10-09T03:47:00.742Z,20.92
2018-10-09T03:49:29.050Z,20.92
2018-10-09T03:51:57.346Z,20.89
2018-10-09T03:54:25.746Z,20.90
2018-10-09T04:01:58.029Z,20.82
2018-10-09T04:04:26.306Z,20.83
2018-10-09T04:06:55.551Z,20.80
2018-10-09T04:09:24.996Z,20.79
2018-10-09T04:11:53.257Z,20.78
2018-10-09T04:14:21.578Z,20.78
2018-10-09T04:16:49.934Z,20.81
2018-10-09T04:19:18.286Z,20.77
2018-10-09T04:21:46.665Z,20.79
2018-10-09T04:24:14.983Z,20.81
2018-10-09T04:26:44.431Z,20.79
2018-10-09T04:29:12.733Z,20.80
2018-10-09T04:31:41.126Z,20.81
2018-10-09T04:34:09.574Z,20.78
2018-10-09T04:36:37.906Z,20.79
2018-10-09T04:39:08.122Z,20.76
2018-10-09T04:41:36.453Z,20.80
2018-10-09T04:44:04.784Z,20.79
2018-10-09T04:46:33.134Z,20.79
2018-10-09T04:49:01.451Z,20.78
2018-10-09T04:51:29.808Z,20.79
2018-10-09T04:53:58.655Z,20.77
2018-10-09T04:56:26.958Z,20.76
2018-10-09T04:58:55.255Z,20.77
2018-10-09T05:01:23.590Z,20.76
2018-10-09T05:03:51.925Z,20.76
2018-10-09T05:06:20.241Z,20.76
2018-10-09T05:08:48.658Z,20.77
2018-10-09T05:11:16.998Z,20.71
2018-10-09T05:13:45.340Z,20.75
2018-10-09T05:16:13.678Z,20.75
2018-10-09T05:18:42.066Z,20.74
2018-10-09T05:21:10.415Z,20.74
2018-10-09T05:23:38.811Z,20.73
2018-10-09T05:26:07.159Z,20.73
2018-10-09T05:28:35.491Z,20.73
2018-10-09T05:31:03.903Z,20.73
2018-10-09T05:33:32.182Z,20.71
2018-10-09T05:36:00.506Z,20.70
2018-10-09T05:38:28.817Z,20.70
2018-10-09T05:40:57.102Z,20.72
2018-10-09T05:43:25.443Z,20.70
2018-10-09T05:45:53.767Z,20.68
2018-10-09T05:48:22.142Z,20.69
2018-10-09T05:50:50.458Z,20.71
2018-10-09T05:53:18.795Z,20.69
2018-10-09T05:55:47.142Z,20.67
2018-10-09T05:58:15.584Z,20.68
2018-10-09T06:00:43.871Z,20.66
2018-10-09T06:03:12.194Z,20.66
2018-10-09T06:05:40.498Z,20.66
2018-10-09T06:08:08.835Z,20.68
2018-10-09T06:10:37.178Z,20.66
2018-10-09T06:13:05.626Z,20.68
2018-10-09T06:15:34.014Z,20.65
2018-10-09T06:18:02.294Z,20.63
2018-10-09T06:20:31.921Z,20.65
2018-10-09T06:23:00.286Z,20.66
2018-10-09T06:25:28.611Z,20.66
2018-10-09T06:27:56.979Z,20.66
2018-10-09T06:30:25.285Z,20.65
2018-10-09T06:32:53.611Z,20.66
2018-10-09T06:35:22.027Z,20.67
2018-10-09T06:37:50.432Z,20.67
2018-10-09T06:40:18.752Z,20.69
2018-10-09T06:42:47.125Z,20.71
2018-10-09T06:45:15.383Z,20.74
2018-10-09T06:47:43.719Z,20.77
2018-10-09T06:50:12.042Z,20.82
2018-10-09T06:52:40.538Z,20.85
2018-10-09T06:55:09.039Z,20.85
2018-10-09T06:57:37.370Z,20.86
2018-10-09T07:00:05.719Z,20.87
2018-10-09T07:02:34.011Z,20.90
2018-10-09T07:05:02.338Z,20.94
2018-10-09T07:07:30.688Z,20.98
2018-10-09T07:09:59.017Z,21.01
2018-10-09T07:12:27.954Z,21.08
2018-10-09T07:14:56.311Z,21.12
2018-10-09T07:17:24.679Z,21.15
2018-10-09T07:19:53.090Z,21.19
2018-10-09T07:22:21.448Z,21.22
2018-10-09T07:24:49.770Z,21.26
2018-10-09T07:27:18.102Z,21.30
2018-10-09T07:29:46.488Z,21.34
2018-10-09T07:32:14.823Z,21.39
2018-10-09T07:34:43.219Z,21.42
2018-10-09T07:37:11.523Z,21.45
2018-10-09T07:39:39.825Z,21.47
2018-10-09T07:42:09.187Z,21.51
2018-10-09T07:44:38.620Z,21.55
2018-10-09T07:47:06.948Z,21.57
2018-10-09T07:49:35.279Z,21.62
2018-10-09T07:52:03.606Z,21.64
2018-10-09T07:54:31.966Z,21.66
2018-10-09T07:57:00.308Z,21.69
2018-10-09T07:59:28.695Z,21.72
2018-10-09T08:01:57.182Z,21.73
2018-10-09T08:04:25.506Z,21.78
2018-10-09T08:06:54.903Z,21.82
2018-10-09T08:09:23.254Z,21.87
2018-10-09T08:11:51.762Z,21.92
2018-10-09T08:14:20.184Z,21.96
2018-10-09T08:16:48.543Z,22.02
2018-10-09T08:19:17.018Z,22.07
2018-10-09T08:21:45.360Z,22.10
2018-10-09T08:24:13.720Z,22.15
2018-10-09T08:26:42.023Z,22.19
2018-10-09T08:29:10.359Z,22.21
2018-10-09T08:31:38.679Z,22.24
2018-10-09T08:34:07.754Z,22.26
2018-10-09T08:36:36.139Z,22.27
2018-10-09T08:39:05.504Z,22.30
2018-10-09T08:41:33.806Z,22.31
2018-10-09T08:44:02.191Z,22.32
2018-10-09T08:46:30.534Z,22.32
2018-10-09T08:48:58.876Z,22.34
2018-10-09T08:51:27.166Z,22.35
2018-10-09T08:53:55.523Z,22.36
2018-10-09T08:56:23.857Z,22.38
2018-10-09T08:58:52.191Z,22.39
2018-10-09T09:01:20.559Z,22.40
2018-10-09T09:03:48.982Z,22.43
2018-10-09T09:06:17.314Z,22.45
2018-10-09T09:08:45.654Z,22.49
2018-10-09T09:11:14.038Z,22.52
2018-10-09T09:13:42.463Z,22.56
2018-10-09T09:16:10.782Z,22.61
2018-10-09T09:18:39.359Z,22.67
2018-10-09T09:21:07.808Z,22.73
2018-10-09T09:23:36.191Z,22.78
2018-10-09T09:26:04.535Z,22.83
2018-10-09T09:28:32.873Z,22.90
2018-10-09T09:31:01.262Z,22.97
2018-10-09T09:33:29.566Z,23.02
2018-10-09T09:35:57.911Z,23.05
2018-10-09T09:38:26.368Z,23.10
2018-10-09T09:40:54.858Z,23.14
2018-10-09T09:43:23.340Z,23.17
2018-10-09T09:45:52.041Z,23.22
2018-10-09T09:48:20.551Z,23.29
2018-10-09T09:50:48.902Z,23.34
2018-10-09T09:53:17.210Z,23.40
2018-10-09T09:55:45.540Z,23.46
2018-10-09T09:58:14.058Z,23.53
2018-10-09T10:00:47.674Z,23.59
2018-10-09T10:03:15.980Z,23.66
2018-10-09T10:05:44.321Z,23.73
2018-10-09T10:08:12.727Z,23.78
2018-10-09T10:10:41.829Z,23.83
2018-10-09T10:13:10.190Z,23.89
2018-10-09T10:15:38.525Z,23.95
2018-10-09T10:18:06.895Z,24.01
2018-10-09T10:20:35.280Z,24.05
2018-10-09T10:23:03.578Z,24.10
2018-10-09T10:25:31.931Z,24.17
2018-10-09T10:28:00.214Z,24.24
2018-10-09T10:30:28.692Z,24.32
2018-10-09T10:32:57.164Z,24.39
2018-10-09T10:35:25.498Z,24.46
2018-10-09T10:37:54.185Z,24.52
2018-10-09T10:40:22.498Z,24.59
2018-10-09T10:42:50.779Z,24.64
2018-10-09T10:45:19.091Z,24.69
2018-10-09T10:47:47.370Z,24.72
2018-10-09T10:50:16.764Z,24.73
2018-10-09T10:52:45.250Z,24.72
2018-10-09T10:55:13.644Z,24.72
2018-10-09T10:57:41.962Z,24.71
2018-10-09T11:00:10.268Z,24.72
2018-10-09T11:02:38.642Z,24.72
2018-10-09T11:05:07.098Z,24.73
2018-10-09T11:07:35.420Z,24.76
2018-10-09T11:10:03.777Z,24.77
2018-10-09T11:12:32.093Z,24.77
2018-10-09T11:15:00.439Z,24.80
2018-10-09T11:17:28.794Z,24.83
2018-10-09T11:19:57.199Z,24.86
2018-10-09T11:22:25.495Z,24.91
2018-10-09T11:24:53.991Z,24.95
2018-10-09T11:27:22.303Z,25.02
2018-10-09T11:29:52.494Z,25.08
2018-10-09T11:32:20.810Z,25.14
2018-10-09T11:34:49.235Z,25.19
2018-10-09T11:37:17.554Z,25.20
2018-10-09T11:39:45.914Z,25.20
2018-10-09T11:42:15.275Z,25.18
2018-10-09T11:44:43.590Z,25.16
2018-10-09T11:47:11.915Z,25.13
2018-10-09T11:49:40.267Z,25.10
2018-10-09T11:52:08.600Z,25.07
2018-10-09T11:54:37.059Z,25.05
2018-10-09T11:57:05.448Z,25.05
2018-10-09T11:59:33.748Z,25.04
2018-10-09T12:02:02.082Z,25.07
2018-10-09T12:04:30.447Z,25.11
2018-10-09T12:06:58.767Z,25.16
2018-10-09T12:09:27.055Z,25.21
2018-10-09T12:11:55.415Z,25.25
2018-10-09T12:14:23.711Z,25.30
2018-10-09T12:16:52.063Z,25.33
2018-10-09T12:19:20.415Z,25.37
2018-10-09T12:21:48.811Z,25.39
2018-10-09T12:24:17.211Z,25.40
2018-10-09T12:26:45.587Z,25.42
2018-10-09T12:29:13.889Z,25.41
2018-10-09T12:31:42.205Z,25.42
2018-10-09T12:34:10.502Z,25.41
2018-10-09T12:36:38.873Z,25.38
2018-10-09T12:39:10.327Z,25.38
2018-10-09T12:41:38.675Z,25.38
2018-10-09T12:44:07.002Z,25.37
2018-10-09T12:46:35.604Z,25.35
2018-10-09T12:49:04.067Z,25.33
2018-10-09T12:51:32.338Z,25.32
2018-10-09T12:54:00.962Z,25.29
2018-10-09T12:56:29.305Z,25.29
2018-10-09T12:58:57.897Z,25.26
2018-10-09T13:01:26.189Z,25.24
2018-10-09T13:03:54.454Z,25.23
2018-10-09T13:06:22.744Z,25.21
2018-10-09T13:08:51.014Z,25.19
2018-10-09T13:11:19.325Z,25.18
2018-10-09T13:13:48.463Z,25.18
2018-10-09T13:16:16.802Z,25.16
2018-10-09T13:18:45.092Z,25.15
2018-10-09T13:21:13.541Z,25.14
2018-10-09T13:23:41.735Z,25.13
2018-10-09T13:26:10.035Z,25.12
2018-10-09T13:28:38.395Z,25.12
2018-10-09T13:31:06.795Z,25.11
2018-10-09T13:33:35.105Z,25.10
2018-10-09T13:36:03.395Z,25.09
2018-10-09T13:38:31.711Z,25.07
2018-10-09T13:41:00.137Z,25.06
2018-10-09T13:43:28.450Z,25.05
2018-10-09T13:45:56.749Z,25.05
2018-10-09T13:48:25.028Z,25.03
2018-10-09T13:50:53.369Z,25.03
2018-10-09T13:53:21.607Z,25.02
2018-10-09T13:55:49.915Z,25.01
2018-10-09T13:58:18.218Z,25.01
2018-10-09T14:00:46.530Z,25.00
2018-10-09T14:03:14.826Z,24.98
2018-10-09T14:05:43.075Z,24.97
2018-10-09T14:08:11.423Z,24.96
2018-10-09T14:10:39.712Z,24.96
2018-10-09T14:13:08.002Z,24.95
2018-10-09T14:15:36.347Z,24.95
2018-10-09T14:18:04.670Z,24.94
2018-10-09T14:20:32.951Z,24.93
2018-10-09T14:23:01.342Z,24.93
2018-10-09T14:25:29.580Z,24.94
2018-10-09T14:27:57.843Z,24.92
2018-10-09T14:30:26.133Z,24.92
2018-10-09T14:32:54.423Z,24.92
2018-10-09T14:35:23.018Z,24.91
2018-10-09T14:37:51.486Z,24.91
2018-10-09T14:40:19.755Z,24.91
2018-10-09T14:42:48.042Z,24.90
2018-10-09T14:45:16.331Z,24.88
2018-10-09T14:47:44.684Z,24.88
2018-10-09T14:50:13.058Z,24.87
2018-10-09T14:52:41.347Z,24.86
2018-10-09T14:55:09.718Z,24.84
2018-10-09T14:57:38.098Z,24.83
2018-10-09T15:00:06.953Z,24.84
2018-10-09T15:02:35.388Z,24.82
2018-10-09T15:05:03.702Z,24.81
2018-10-09T15:07:31.970Z,24.77
2018-10-09T15:10:00.239Z,24.81
2018-10-09T15:12:28.546Z,24.79
2018-10-09T15:14:56.972Z,24.79
2018-10-09T15:17:25.560Z,24.78
2018-10-09T15:19:54.050Z,24.77
2018-10-09T15:22:22.729Z,24.75
2018-10-09T15:24:51.594Z,24.75
2018-10-09T15:27:20.142Z,24.74
2018-10-09T15:29:48.833Z,24.73
2018-10-09T15:32:17.365Z,24.71
2018-10-09T15:34:45.937Z,24.70
2018-10-09T15:37:14.486Z,24.69
2018-10-09T15:39:43.002Z,24.67
2018-10-09T15:42:11.295Z,24.67
2018-10-09T15:44:39.579Z,24.66
2018-10-09T15:47:07.911Z,24.63
2018-10-09T15:49:36.263Z,24.61
2018-10-09T15:52:04.583Z,24.59
2018-10-09T15:54:32.843Z,24.57
2018-10-09T15:57:01.136Z,24.55
2018-10-09T15:59:29.450Z,24.54
2018-10-09T16:01:57.754Z,24.52
2018-10-09T16:04:26.074Z,24.51
2018-10-09T16:06:54.396Z,24.49
2018-10-09T16:09:22.679Z,24.47
2018-10-09T16:11:50.967Z,24.46
2018-10-09T16:14:19.310Z,24.44
2018-10-09T16:16:47.610Z,24.42
2018-10-09T16:19:15.999Z,24.41
2018-10-09T16:21:45.295Z,24.39
2018-10-09T16:24:13.587Z,24.37
2018-10-09T16:26:42.010Z,24.35
2018-10-09T16:29:10.423Z,24.33
2018-10-09T16:31:38.718Z,24.31
2018-10-09T16:34:07.061Z,24.30
2018-10-09T16:36:35.356Z,24.26
2018-10-09T16:39:04.536Z,24.25
2018-10-09T16:41:32.850Z,24.23
2018-10-09T16:44:01.148Z,24.21
2018-10-09T16:46:29.495Z,24.19
2018-10-09T16:48:57.798Z,24.17
2018-10-09T16:51:26.115Z,24.15
2018-10-09T16:53:54.434Z,24.14
2018-10-09T16:56:22.809Z,24.12
2018-10-09T16:58:51.079Z,24.09
2018-10-09T17:01:19.425Z,24.08
2018-10-09T17:03:47.746Z,24.05
2018-10-09T17:06:16.030Z,24.04
2018-10-09T17:08:44.415Z,24.03
2018-10-09T17:11:12.754Z,23.99
2018-10-09T17:13:41.035Z,23.97
2018-10-09T17:16:09.571Z,23.95
2018-10-09T17:18:37.866Z,23.94
2018-10-09T17:21:06.330Z,23.92
2018-10-09T17:23:34.670Z,23.90
2018-10-09T17:26:02.928Z,23.89
2018-10-09T17:28:31.317Z,23.87
2018-10-09T17:30:59.572Z,23.86
2018-10-09T17:33:27.914Z,23.83
2018-10-09T17:35:56.151Z,23.83
2018-10-09T17:38:24.583Z,23.82
2018-10-09T17:40:52.891Z,23.81
2018-10-09T17:43:21.326Z,23.81
2018-10-09T17:45:49.623Z,23.80
2018-10-09T17:48:18.974Z,23.79
2018-10-09T17:50:47.238Z,23.78
2018-10-09T17:53:15.534Z,23.76
2018-10-09T17:55:43.863Z,23.74
2018-10-09T17:58:12.181Z,23.74
2018-10-09T18:00:40.518Z,23.74
2018-10-09T18:03:08.886Z,23.73
2018-10-09T18:05:37.296Z,23.71
2018-10-09T18:08:05.909Z,23.71
2018-10-09T18:10:34.198Z,23.71
2018-10-09T18:13:02.645Z,23.66
2018-10-09T18:15:30.911Z,23.68
2018-10-09T18:17:59.298Z,23.67
2018-10-09T18:20:27.619Z,23.67
2018-10-09T18:22:55.955Z,23.65
2018-10-09T18:25:24.218Z,23.64
2018-10-09T18:27:52.577Z,23.63
2018-10-09T18:30:20.883Z,23.62
2018-10-09T18:32:49.453Z,23.60
2018-10-09T18:35:17.543Z,23.60
2018-10-09T18:37:45.851Z,23.58
2018-10-09T18:40:14.138Z,23.57
2018-10-09T18:42:42.474Z,23.56
2018-10-09T18:45:11.218Z,23.55
2018-10-09T18:47:42.328Z,23.54
2018-10-09T18:50:11.182Z,23.53
2018-10-09T18:52:40.312Z,23.52
2018-10-09T18:55:10.326Z,23.48
2018-10-09T18:57:38.646Z,23.48
2018-10-09T19:00:07.674Z,23.47
2018-10-09T19:02:35.994Z,23.45
2018-10-09T19:05:04.347Z,23.45
2018-10-09T19:07:32.646Z,23.44
2018-10-09T19:10:00.967Z,23.42
2018-10-09T19:12:30.267Z,23.42
2018-10-09T19:14:58.666Z,23.40
2018-10-09T19:17:26.951Z,23.39
2018-10-09T19:19:55.290Z,23.38
2018-10-09T19:22:23.608Z,23.37
2018-10-09T19:24:51.899Z,23.36
2018-10-09T19:27:20.466Z,23.34
2018-10-09T19:29:48.811Z,23.34
2018-10-09T19:32:17.134Z,23.33
2018-10-09T19:34:45.482Z,23.31
2018-10-09T19:37:13.759Z,23.30
2018-10-09T19:39:42.115Z,23.28
2018-10-09T19:42:10.399Z,23.25
2018-10-09T19:44:38.695Z,23.25
2018-10-09T19:47:07.083Z,23.24
2018-10-09T19:49:35.386Z,23.23
2018-10-09T19:52:03.678Z,23.21
2018-10-09T19:54:31.980Z,23.20
2018-10-09T19:57:00.243Z,23.20
2018-10-09T19:59:28.602Z,23.19
2018-10-09T20:01:56.856Z,23.19
2018-10-09T20:04:25.151Z,23.18
2018-10-09T20:06:53.574Z,23.17
2018-10-09T20:09:21.888Z,23.17
2018-10-09T20:11:50.198Z,23.16
2018-10-09T20:14:18.545Z,23.15
2018-10-09T20:16:46.847Z,23.13
2018-10-09T20:19:15.207Z,23.12
2018-10-09T20:21:43.563Z,23.12
2018-10-09T20:24:11.915Z,23.11
2018-10-09T20:26:40.179Z,23.10
2018-10-09T20:29:08.468Z,23.10
2018-10-09T20:31:36.741Z,23.10
2018-10-09T20:34:05.095Z,23.09
2018-10-09T20:36:33.399Z,23.08
2018-10-09T20:39:01.843Z,23.08
2018-10-09T20:41:30.224Z,23.05
2018-10-09T20:43:58.506Z,23.05
2018-10-09T20:46:26.822Z,23.06
2018-10-09T20:48:55.090Z,23.05
2018-10-09T20:51:23.497Z,23.05
2018-10-09T20:53:51.795Z,23.05
2018-10-09T20:56:20.125Z,23.03
2018-10-09T20:58:48.482Z,23.02
2018-10-09T21:01:16.814Z,23.00
2018-10-09T21:03:45.099Z,22.98
2018-10-09T21:06:13.576Z,22.98
2018-10-09T21:08:43.118Z,22.96
2018-10-09T21:11:11.416Z,22.94
2018-10-09T21:13:39.781Z,22.94
2018-10-09T21:16:08.143Z,22.94
2018-10-09T21:18:36.491Z,22.92
2018-10-09T21:21:04.847Z,22.90
2018-10-09T21:23:33.187Z,22.89
2018-10-09T21:26:01.608Z,22.90
2018-10-09T21:28:29.975Z,22.88
2018-10-09T21:30:58.295Z,22.87
2018-10-09T21:33:26.550Z,22.86
2018-10-09T21:35:54.885Z,22.85
2018-10-09T21:38:23.298Z,22.84
2018-10-09T21:40:51.582Z,22.82
2018-10-09T21:43:19.891Z,22.80
2018-10-09T21:45:48.206Z,22.80
2018-10-09T21:48:16.534Z,22.80
2018-10-09T21:50:45.846Z,22.79
2018-10-09T21:53:14.610Z,22.78
2018-10-09T21:55:42.911Z,22.77
2018-10-09T21:58:11.224Z,22.76
2018-10-09T22:00:44.825Z,22.75
2018-10-09T22:03:13.185Z,22.73
2018-10-09T22:05:41.460Z,22.73
2018-10-09T22:08:09.758Z,22.72
2018-10-09T22:10:38.107Z,22.72
2018-10-09T22:13:06.723Z,22.71
2018-10-09T22:15:35.031Z,22.70
2018-10-09T22:18:03.346Z,22.69
2018-10-09T22:20:31.627Z,22.69
2018-10-09T22:22:59.929Z,22.68
2018-10-09T22:25:28.218Z,22.66
2018-10-09T22:27:56.486Z,22.65
2018-10-09T22:30:24.778Z,22.64
2018-10-09T22:32:53.159Z,22.63
2018-10-09T22:35:21.470Z,22.63
2018-10-09T22:37:49.759Z,22.61
2018-10-09T22:40:18.075Z,22.61
2018-10-09T22:42:46.985Z,22.59
2018-10-09T22:45:15.323Z,22.58
2018-10-09T22:47:43.636Z,22.58
2018-10-09T22:50:12.135Z,22.58
2018-10-09T22:52:40.771Z,22.57
2018-10-09T22:55:09.324Z,22.56
2018-10-09T22:57:38.062Z,22.55
2018-10-09T23:00:06.750Z,22.55
2018-10-09T23:02:35.051Z,22.54
2018-10-09T23:05:03.403Z,22.54
2018-10-09T23:07:31.719Z,22.53
2018-10-09T23:10:00.018Z,22.51
2018-10-09T23:12:28.346Z,22.51
2018-10-09T23:14:56.598Z,22.51
2018-10-09T23:17:24.923Z,22.49
2018-10-09T23:19:53.226Z,22.48
2018-10-09T23:22:21.587Z,22.47
2018-10-09T23:24:49.902Z,22.46
2018-10-09T23:27:18.199Z,22.46
2018-10-09T23:29:46.457Z,22.45
2018-10-09T23:32:14.815Z,22.45
2018-10-09T23:34:43.100Z,22.42
2018-10-09T23:37:11.379Z,22.42
2018-10-09T23:39:39.680Z,22.40
2018-10-09T23:42:07.999Z,22.40
2018-10-09T23:44:36.311Z,22.39
2018-10-09T23:47:04.709Z,22.39
2018-10-09T23:49:33.011Z,22.38
2018-10-09T23:52:01.334Z,22.36
2018-10-09T23:54:29.606Z,22.37
2018-10-09T23:56:57.895Z,22.35
2018-10-09T23:59:26.155Z,22.34
